Time;durP1;ratioP1;P1;durP2;ratioP2;P2;SDS_P1;SDS_P2;PMS_P1;PMS_P2;Temp;Humidity;BMP_temperature;BMP_pressure;BME280_temperature;BME280_humidity;BME280_pressure;Samples;Min_cycle;Max_cycle;Signal;HPM_P1;HPM_P2
2020/12/07 00:01:52;;;;;;;35.67;15.10;;;;;;;3.77;99.42;99690.13;4761621;29;20042;-90
2020/12/07 00:04:24;;;;;;;34.25;15.43;;;;;;;3.77;99.57;99682.13;4754072;29;20055;-89
2020/12/07 00:07:04;;;;;;;41.00;16.88;;;;;;;3.74;99.56;99666.41;4760018;29;20136;-88
2020/12/07 00:09:31;;;;;;;39.20;15.68;;;;;;;3.71;99.36;99671.97;4755733;29;20084;-89
2020/12/07 00:12:02;;;;;;;37.25;15.70;;;;;;;3.75;99.57;99665.44;4731060;30;20052;-88
2020/12/07 00:14:37;;;;;;;37.42;15.63;;;;;;;3.77;99.79;99671.50;4762742;29;20074;-88
2020/12/07 00:17:23;;;;;;;31.92;15.82;;;;;;;3.83;99.45;99654.19;4759177;30;20055;-87
2020/12/07 00:20:21;;;;;;;36.85;15.82;;;;;;;3.74;99.16;99655.78;4770411;29;20054;-88
2020/12/07 00:26:05;;;;;;;31.10;14.70;;;;;;;3.76;99.48;99631.69;4780604;30;20040;-89
2020/12/07 00:28:58;;;;;;;33.65;14.52;;;;;;;3.73;99.45;99645.25;4767072;29;20063;-87
2020/12/07 00:31:25;;;;;;;33.75;14.63;;;;;;;3.76;99.47;99640.50;4752737;29;20560;-87
2020/12/07 00:33:58;;;;;;;32.25;13.93;;;;;;;3.78;99.58;99635.91;4762482;30;20419;-87
2020/12/07 00:36:30;;;;;;;32.38;14.18;;;;;;;3.77;99.27;99631.56;4763115;29;22550;-88
2020/12/07 00:39:19;;;;;;;;;;;;;;;;;;;;;
2020/12/07 00:41:46;;;;;;;31.65;13.32;;;;;;;3.76;99.70;99624.53;4764217;30;20984;-87
2020/12/07 00:44:15;;;;;;;29.85;13.48;;;;;;;3.79;99.31;99621.63;4776989;29;20039;-88
2020/12/07 00:46:40;;;;;;;32.88;12.95;;;;;;;3.77;100.00;99617.41;4771103;30;20150;-88
2020/12/07 00:49:08;;;;;;;29.60;13.63;;;;;;;3.79;99.73;99611.00;4762815;29;20133;-88
2020/12/07 00:52:01;;;;;;;27.30;12.55;;;;;;;3.77;99.65;99604.97;4770677;30;20050;-88
2020/12/07 00:54:42;;;;;;;;;;;;;;;;;;;;;
2020/12/07 00:57:18;;;;;;;27.63;11.93;;;;;;;3.75;99.58;99612.19;4776912;29;20058;-88
2020/12/07 01:00:22;;;;;;;26.52;10.45;;;;;;;3.78;99.83;99611.94;4768972;29;20059;-88
2020/12/07 01:03:17;;;;;;;27.33;11.25;;;;;;;3.78;99.88;99609.28;4756869;29;20054;-88
2020/12/07 01:05:57;;;;;;;23.80;10.60;;;;;;;3.81;99.42;99608.19;4765758;30;20193;-88
2020/12/07 01:08:44;;;;;;;24.33;10.30;;;;;;;3.78;99.97;99606.63;4767521;29;20048;-88
2020/12/07 01:11:17;;;;;;;28.55;12.00;;;;;;;3.83;99.36;99604.47;4763508;29;20047;-88
2020/12/07 01:13:51;;;;;;;23.48;10.68;;;;;;;3.88;99.76;99595.25;4762168;29;20059;-88
2020/12/07 01:16:46;;;;;;;;;;;;;;;;;;;;;
2020/12/07 01:19:22;;;;;;;23.85;10.45;;;;;;;3.82;99.52;99597.44;4756172;29;20893;-88
2020/12/07 01:22:17;;;;;;;24.30;10.50;;;;;;;3.81;99.79;99601.09;4789394;29;20066;-88
2020/12/07 01:24:46;;;;;;;23.83;10.82;;;;;;;3.88;99.47;99598.75;4747711;29;20043;-88
2020/12/07 01:27:22;;;;;;;22.13;9.85;;;;;;;3.83;99.94;99617.75;4776554;29;20047;-88
2020/12/07 01:30:25;;;;;;;23.17;10.75;;;;;;;3.83;99.52;99628.41;4758077;30;20069;-89
2020/12/07 01:33:03;;;;;;;;;;;;;;;;;;;;;
2020/12/07 01:36:07;;;;;;;20.70;9.57;;;;;;;3.84;99.46;99622.13;4793234;29;20054;-90
2020/12/07 01:42:19;;;;;;;18.65;9.00;;;;;;;3.86;99.96;99620.19;4702679;30;20082;-89
2020/12/07 01:44:53;;;;;;;20.67;9.18;;;;;;;3.88;100.00;99597.91;4739896;30;20048;-89
2020/12/07 01:47:48;;;;;;;24.15;9.18;;;;;;;3.89;99.81;99597.78;4743739;30;20047;-90
2020/12/07 01:51:04;;;;;;;18.83;9.07;;;;;;;3.96;99.46;99595.47;4777270;29;20094;-90
2020/12/07 01:53:55;;;;;;;20.70;9.30;;;;;;;3.96;99.59;99588.34;4725604;30;20746;-90
2020/12/07 01:56:51;;;;;;;22.42;9.38;;;;;;;3.90;99.86;99591.50;4742711;29;20044;-91
2020/12/07 01:59:42;;;;;;;22.15;9.73;;;;;;;3.95;99.67;99599.94;4778295;29;20059;-90
2020/12/07 02:02:30;;;;;;;21.20;9.50;;;;;;;3.93;100.00;99603.69;4767772;29;20050;-90
2020/12/07 02:05:19;;;;;;;23.80;10.65;;;;;;;3.90;99.90;99588.84;4766492;29;20494;-89
2020/12/07 02:07:53;;;;;;;24.42;11.25;;;;;;;3.99;99.45;99588.09;4767365;29;20039;-91
2020/12/07 02:10:50;;;;;;;22.00;9.07;;;;;;;3.96;99.69;99595.47;4751659;29;20074;-91
2020/12/07 02:13:24;;;;;;;22.85;9.93;;;;;;;3.95;99.99;99593.78;4793880;29;20498;-91
2020/12/07 02:16:34;;;;;;;19.27;10.10;;;;;;;3.97;99.85;99586.50;4768334;30;20040;-91
2020/12/07 02:19:25;;;;;;;21.60;9.98;;;;;;;3.97;99.83;99570.53;4769961;29;20043;-91
2020/12/07 02:22:28;;;;;;;22.42;9.48;;;;;;;3.99;99.71;99574.78;4778565;30;20047;-91
2020/12/07 02:25:29;;;;;;;19.77;9.20;;;;;;;3.95;99.89;99577.81;4733411;29;20058;-90
2020/12/07 02:28:13;;;;;;;21.35;9.60;;;;;;;3.92;99.71;99567.44;4764928;29;20043;-91
2020/12/07 02:30:47;;;;;;;25.25;9.68;;;;;;;3.98;99.83;99561.59;4735446;29;20057;-90
2020/12/07 02:33:15;;;;;;;21.17;9.45;;;;;;;3.99;99.75;99560.59;4760595;29;20513;-90
2020/12/07 02:35:57;;;;;;;;;;;;;;;;;;;;;
2020/12/07 02:38:36;;;;;;;25.40;9.82;;;;;;;4.01;100.00;99532.06;4750325;29;20935;-89
2020/12/07 02:41:13;;;;;;;22.98;9.55;;;;;;;4.00;99.94;99527.69;4757864;29;20057;-89
2020/12/07 02:44:10;;;;;;;24.27;9.23;;;;;;;3.98;100.00;99530.47;4777203;29;20703;-89
2020/12/07 02:46:52;;;;;;;27.65;9.57;;;;;;;3.99;100.00;99532.19;4775303;29;20437;-89
2020/12/07 02:49:24;;;;;;;21.75;9.55;;;;;;;3.98;100.00;99535.81;4762042;29;20044;-89
2020/12/07 02:51:57;;;;;;;23.27;10.40;;;;;;;3.94;100.00;99529.03;4763943;29;20047;-89
2020/12/07 02:54:24;;;;;;;25.88;10.40;;;;;;;3.96;100.00;99526.25;4765327;29;20082;-89
2020/12/07 02:56:54;;;;;;;29.45;10.85;;;;;;;3.97;100.00;99522.63;4768199;29;20076;-89
2020/12/07 02:59:36;;;;;;;28.75;10.57;;;;;;;3.95;100.00;99512.09;4738707;29;20107;-89
2020/12/07 03:02:17;;;;;;;23.85;9.77;;;;;;;3.96;100.00;99503.16;4750163;29;20051;-89
2020/12/07 03:04:59;;;;;;;28.23;10.45;;;;;;;3.99;100.00;99504.69;4753458;30;20047;-89
2020/12/07 03:07:30;;;;;;;23.83;10.15;;;;;;;3.99;100.00;99505.56;4765014;30;20047;-88
2020/12/07 03:10:25;;;;;;;25.90;10.38;;;;;;;4.01;100.00;99508.09;4754388;29;20139;-88
2020/12/07 03:13:01;;;;;;;28.27;10.93;;;;;;;4.02;99.85;99499.97;4736564;30;20205;-88
2020/12/07 03:16:01;;;;;;;26.08;10.65;;;;;;;4.02;100.00;99496.47;4767935;30;20126;-88
2020/12/07 03:18:43;;;;;;;24.00;10.15;;;;;;;4.11;100.00;99486.84;4735496;29;20085;-89
2020/12/07 03:21:31;;;;;;;27.23;11.23;;;;;;;4.10;100.00;99475.38;4763058;29;20071;-90
2020/12/07 03:24:05;;;;;;;25.23;10.10;;;;;;;4.10;100.00;99463.88;4727643;30;20063;-90
2020/12/07 03:26:40;;;;;;;25.52;10.02;;;;;;;4.09;100.00;99460.34;4759241;30;20696;-89
2020/12/07 03:29:12;;;;;;;26.65;9.98;;;;;;;4.09;100.00;99457.69;4785833;29;20051;-89
2020/12/07 03:31:51;;;;;;;20.60;10.23;;;;;;;4.15;100.00;99457.19;4754012;30;20040;-89
2020/12/07 03:34:31;;;;;;;24.30;9.15;;;;;;;4.14;100.00;99466.16;4769121;29;20047;-90
2020/12/07 03:36:59;;;;;;;25.10;9.43;;;;;;;4.15;100.00;99461.66;4744711;30;20069;-89
2020/12/07 03:39:47;;;;;;;19.50;9.07;;;;;;;4.15;100.00;99465.19;4739659;30;20058;-89
2020/12/07 03:42:15;;;;;;;26.38;9.90;;;;;;;4.15;100.00;99451.88;4776551;29;20048;-89
2020/12/07 03:44:46;;;;;;;22.15;9.10;;;;;;;4.15;100.00;99451.88;4755856;30;20441;-89
2020/12/07 03:47:27;;;;;;;;;;;;;;;;;;;;;
2020/12/07 03:50:01;;;;;;;21.65;8.68;;;;;;;4.24;100.00;99455.56;4766707;29;20521;-89
2020/12/07 03:52:38;;;;;;;22.15;9.25;;;;;;;4.24;100.00;99444.94;4755121;29;20053;-90
2020/12/07 03:55:26;;;;;;;23.20;8.52;;;;;;;4.26;100.00;99453.63;4765464;29;20051;-88
2020/12/07 03:58:00;;;;;;;23.52;9.13;;;;;;;4.27;100.00;99454.44;4765470;30;20057;-88
2020/12/07 04:00:32;;;;;;;23.13;9.77;;;;;;;4.29;100.00;99442.69;4762029;30;20581;-88
2020/12/07 04:03:03;;;;;;;28.05;10.43;;;;;;;4.30;100.00;99440.88;4771281;29;20055;-89
2020/12/07 04:05:37;;;;;;;27.52;10.75;;;;;;;4.34;100.00;99444.97;4737764;30;20140;-89
2020/12/07 04:08:07;;;;;;;23.90;10.75;;;;;;;4.35;100.00;99446.66;4770693;29;20055;-88
2020/12/07 04:10:42;;;;;;;32.97;11.75;;;;;;;4.31;100.00;99455.88;4769865;29;20131;-88
2020/12/07 04:13:24;;;;;;;30.70;11.85;;;;;;;4.30;100.00;99448.84;4755590;29;20126;-88
2020/12/07 04:15:55;;;;;;;38.70;13.20;;;;;;;4.30;100.00;99455.06;4752535;30;20118;-88
2020/12/07 04:18:28;;;;;;;30.48;13.38;;;;;;;4.32;100.00;99452.25;4754686;29;20043;-88
2020/12/07 04:21:00;;;;;;;39.63;13.77;;;;;;;4.30;100.00;99448.84;4767414;30;20465;-88
2020/12/07 04:23:47;;;;;;;34.05;13.48;;;;;;;4.31;100.00;99442.56;4759633;30;20035;-88
2020/12/07 04:26:16;;;;;;;37.10;14.60;;;;;;;4.31;100.00;99447.91;4755399;30;20086;-88
2020/12/07 04:28:50;;;;;;;45.38;15.75;;;;;;;4.33;100.00;99453.94;4778666;29;20044;-87
2020/12/07 04:31:18;;;;;;;34.92;15.20;;;;;;;4.30;100.00;99460.38;4773149;30;20131;-88
2020/12/07 04:33:46;;;;;;;43.28;16.95;;;;;;;4.31;100.00;99454.06;4779589;29;20051;-88
2020/12/07 04:36:12;;;;;;;42.92;16.10;;;;;;;4.30;100.00;99465.69;4769757;30;20510;-88
2020/12/07 04:38:46;;;;;;;42.80;16.65;;;;;;;4.33;100.00;99469.94;4768287;30;20058;-88
2020/12/07 04:41:14;;;;;;;39.20;16.33;;;;;;;4.41;100.00;99463.94;4757902;30;20043;-88
2020/12/07 04:43:45;;;;;;;37.20;15.38;;;;;;;4.34;100.00;99444.97;4743377;30;20467;-87
2020/12/07 04:46:25;;;;;;;47.30;17.38;;;;;;;4.31;100.00;99461.22;4764163;29;20048;-87
2020/12/07 04:49:02;;;;;;;41.33;15.90;;;;;;;4.35;100.00;99462.66;4763244;30;20417;-87
2020/12/07 04:51:38;;;;;;;36.00;16.48;;;;;;;4.44;100.00;99448.53;4770506;29;20139;-88
2020/12/07 04:54:16;;;;;;;38.25;15.93;;;;;;;4.41;100.00;99439.97;4769563;29;20051;-88
2020/12/07 04:56:59;;;;;;;34.92;15.30;;;;;;;4.42;100.00;99444.31;4793218;29;20039;-88
2020/12/07 04:59:32;;;;;;;38.28;15.02;;;;;;;4.38;100.00;99425.91;4758491;29;20145;-88
2020/12/07 05:02:04;;;;;;;36.47;15.02;;;;;;;4.42;100.00;99425.66;4762373;30;20135;-88
2020/12/07 05:04:44;;;;;;;37.63;14.50;;;;;;;4.39;100.00;99416.13;4738542;30;21059;-88
2020/12/07 05:07:12;;;;;;;33.97;15.13;;;;;;;4.36;100.00;99427.88;4770374;29;20510;-89
2020/12/07 05:09:46;;;;;;;41.10;14.35;;;;;;;4.36;100.00;99422.56;4763694;29;20048;-88
2020/12/07 05:12:28;;;;;;;34.83;15.10;;;;;;;4.37;100.00;99426.06;4750629;29;20083;-89
2020/12/07 05:15:12;;;;;;;36.50;14.35;;;;;;;4.38;100.00;99419.75;4760379;29;20047;-88
2020/12/07 05:17:59;;;;;;;38.95;15.52;;;;;;;4.34;100.00;99428.97;4745165;29;20056;-88
2020/12/07 05:20:30;;;;;;;34.05;14.57;;;;;;;4.37;100.00;99436.72;4773925;29;20059;-88
2020/12/07 05:23:01;;;;;;;39.55;15.18;;;;;;;4.34;100.00;99423.66;4764135;30;20046;-88
2020/12/07 05:25:54;;;;;;;37.45;14.52;;;;;;;4.41;100.00;99429.31;4752475;29;21961;-89
2020/12/07 05:29:03;;;;;;;;;;;;;;;;;;;;;
2020/12/07 05:31:34;;;;;;;33.87;13.80;;;;;;;4.35;100.00;99415.53;4759742;29;21043;-89
2020/12/07 05:34:21;;;;;;;31.67;12.57;;;;;;;4.43;100.00;99428.22;4776111;30;20704;-90
2020/12/07 05:36:59;;;;;;;29.17;13.18;;;;;;;4.37;100.00;99428.72;4754098;29;20042;-89
2020/12/07 05:39:41;;;;;;;27.60;11.88;;;;;;;4.35;100.00;99430.69;4764132;29;20651;-89
2020/12/07 05:42:16;;;;;;;25.10;11.82;;;;;;;4.33;100.00;99432.66;4752707;30;20514;-88
2020/12/07 05:44:51;;;;;;;33.28;12.60;;;;;;;4.35;100.00;99414.69;4763762;30;20501;-89
2020/12/07 05:47:32;;;;;;;25.80;11.70;;;;;;;4.35;100.00;99420.03;4768060;29;20050;-89
2020/12/07 05:50:30;;;;;;;23.15;12.07;;;;;;;4.35;100.00;99402.22;4769525;29;20132;-90
2020/12/07 05:53:02;;;;;;;26.35;10.60;;;;;;;4.33;100.00;99398.84;4740767;29;20090;-90
2020/12/07 05:56:03;;;;;;;24.92;11.25;;;;;;;4.38;100.00;99393.13;4757243;30;20040;-89
2020/12/07 06:02:00;;;;;;;24.38;10.20;;;;;;;4.35;100.00;99388.06;4695108;30;20055;-89
2020/12/07 06:04:33;;;;;;;25.98;10.88;;;;;;;4.36;100.00;99390.59;4727514;30;20039;-89
2020/12/07 06:07:17;;;;;;;28.35;10.98;;;;;;;4.36;100.00;99379.09;4764102;30;20074;-89
2020/12/07 06:09:57;;;;;;;26.10;10.60;;;;;;;4.38;100.00;99395.78;4758812;30;20056;-88
2020/12/07 06:12:36;;;;;;;19.83;9.07;;;;;;;4.39;100.00;99395.66;4770192;29;20041;-88
2020/12/07 06:15:08;;;;;;;28.40;10.98;;;;;;;4.39;100.00;99389.50;4762525;29;20055;-88
2020/12/07 06:17:44;;;;;;;27.70;9.30;;;;;;;4.36;100.00;99400.41;4736958;30;20047;-89
2020/12/07 06:20:38;;;;;;;25.08;10.10;;;;;;;4.36;100.00;99405.75;4751464;29;20055;-88
2020/12/07 06:23:15;;;;;;;19.40;9.77;;;;;;;4.37;100.00;99412.72;4746100;29;20912;-88
2020/12/07 06:26:13;;;;;;;22.80;9.80;;;;;;;4.36;100.00;99421.72;4763973;30;20044;-88
2020/12/07 06:29:10;;;;;;;;;;;;;;;;;;;;;
2020/12/07 06:37:55;;;;;;;26.30;11.05;;;;;;;4.39;100.00;99405.47;4745536;29;20038;-88
2020/12/07 06:40:43;;;;;;;24.25;10.48;;;;;;;4.43;100.00;99414.91;4754867;29;20417;-86
2020/12/07 06:43:47;;;;;;;31.02;12.07;;;;;;;4.43;100.00;99416.69;4748679;29;20055;-88
2020/12/07 06:47:00;;;;;;;31.85;14.77;;;;;;;4.43;100.00;99409.56;4764381;29;20061;-86
2020/12/07 06:49:55;;;;;;;35.70;13.63;;;;;;;4.40;100.00;99407.13;4784341;29;20535;-88
2020/12/07 06:52:35;;;;;;;27.33;13.00;;;;;;;4.41;100.00;99411.50;4777392;30;20039;-87
2020/12/07 06:55:29;;;;;;;35.03;14.23;;;;;;;4.39;100.00;99411.63;4758053;30;20051;-88
2020/12/07 06:58:21;;;;;;;;;;;;;;;;;;;;;
2020/12/07 07:00:59;;;;;;;35.03;14.57;;;;;;;4.45;100.00;99414.75;4758889;29;20043;-87
2020/12/07 07:06:30;;;;;;;36.58;15.70;;;;;;;4.48;100.00;99425.16;4761167;29;20130;-88
2020/12/07 07:09:06;;;;;;;39.88;18.00;;;;;;;4.46;100.00;99419.09;4758305;29;20058;-87
2020/12/07 07:12:00;;;;;;;;;;;;;;;;;;;;;
2020/12/07 07:14:42;;;;;;;33.75;16.45;;;;;;;4.47;100.00;99413.63;4751647;29;20552;-89
2020/12/07 07:17:49;;;;;;;43.20;17.42;;;;;;;4.45;100.00;99434.25;4767155;29;20428;-89
2020/12/07 07:21:26;;;;;;;34.53;16.45;;;;;;;4.50;100.00;99439.16;4746583;29;20047;-90
2020/12/07 07:34:04;;;;;;;34.72;15.07;;;;;;;4.54;100.00;99427.28;4570679;31;20060;-89
2020/12/07 07:37:29;;;;;;;31.88;14.25;;;;;;;4.52;100.00;99431.88;4609761;30;20066;-89
2020/12/07 07:40:27;;;;;;;;;;;;;;;;;;;;;
2020/12/07 07:43:49;;;;;;;;;;;;;;;;;;;;;
2020/12/07 07:58:25;;;;;;;;;;;;;;;;;;;;;
2020/12/07 08:17:16;;;;;;;;;;;;;;;4.68;100.00;99453.59;4706803;30;20402;-89
2020/12/07 08:20:22;;;;;;;;;;;;;;;;;;;;;
2020/12/07 14:46:56;;;;;;;62.58;26.80;;;;;;;3.88;98.09;99705.22;1267616;24;20372;-87
2020/12/07 14:49:22;;;;;;;54.70;26.67;;;;;;;3.87;97.78;99714.19;4762914;29;20051;-85
2020/12/07 14:52:19;;;;;;;63.70;27.95;;;;;;;3.77;98.01;99723.84;4763355;29;20072;-86
2020/12/07 14:54:48;;;;;;;60.95;26.00;;;;;;;3.73;97.79;99723.25;4776946;29;20108;-85
2020/12/07 15:05:54;;;;;;;59.80;26.35;;;;;;;3.76;98.06;99759.44;4733885;30;20249;-85
2020/12/07 15:11:56;;;;;;;58.05;26.65;;;;;;;3.68;98.11;99768.88;4723705;30;20056;-86
2020/12/07 15:14:38;;;;;;;60.38;27.30;;;;;;;3.61;98.54;99772.13;4693897;30;20197;-86
2020/12/07 15:17:04;;;;;;;62.50;28.58;;;;;;;3.61;98.68;99772.13;4713515;30;20052;-86
2020/12/07 15:19:32;;;;;;;59.88;29.08;;;;;;;3.61;98.17;99778.28;4705350;30;20588;-85
2020/12/07 15:22:05;;;;;;;68.95;29.63;;;;;;;3.57;97.99;99776.81;4704627;30;20086;-86
2020/12/07 15:24:52;;;;;;;74.97;30.95;;;;;;;3.56;97.73;99777.78;4722931;30;20055;-85
2020/12/07 15:27:25;;;;;;;80.38;31.90;;;;;;;3.50;98.61;99779.13;4776121;29;20046;-86
2020/12/07 15:30:14;;;;;;;65.95;29.85;;;;;;;3.49;98.06;99779.22;4745570;30;20047;-88
2020/12/07 15:32:48;;;;;;;75.25;31.45;;;;;;;3.41;98.19;99782.44;4763000;29;20060;-86
2020/12/07 15:35:23;;;;;;;87.97;31.90;;;;;;;3.40;98.69;99786.09;4767791;29;20055;-85
2020/12/07 15:37:57;;;;;;;78.22;34.05;;;;;;;3.37;98.63;99780.97;4761931;30;20225;-87
2020/12/07 15:40:28;;;;;;;97.82;40.58;;;;;;;3.36;98.60;99781.97;4764547;29;20049;-87
2020/12/07 15:42:54;;;;;;;93.93;35.67;;;;;;;3.35;98.96;99777.59;4782714;29;20070;-85
2020/12/07 15:45:32;;;;;;;94.60;37.70;;;;;;;3.33;98.83;99785.72;4764038;29;20661;-85
2020/12/07 15:48:00;;;;;;;92.00;36.70;;;;;;;3.35;98.95;99793.56;4767996;30;20084;-85
2020/12/07 15:50:26;;;;;;;84.47;35.28;;;;;;;3.39;98.89;99791.53;4764545;30;20052;-86
2020/12/07 15:52:52;;;;;;;110.93;50.25;;;;;;;3.36;98.53;99800.59;4764743;30;20050;-86
2020/12/07 15:55:20;;;;;;;88.10;35.45;;;;;;;3.33;98.77;99799.00;4752427;30;20079;-86
2020/12/07 15:57:46;;;;;;;93.93;35.28;;;;;;;3.34;99.09;99799.84;4765538;30;20497;-86
2020/12/07 16:00:19;;;;;;;82.15;33.50;;;;;;;3.37;98.99;99796.09;4769937;30;20047;-85
2020/12/07 16:02:52;;;;;;;82.43;35.45;;;;;;;3.39;98.74;99807.50;4755996;30;20050;-86
2020/12/07 16:05:43;;;;;;;89.18;37.40;;;;;;;3.35;98.70;99809.53;4738593;30;20703;-86
2020/12/07 16:11:18;;;;;;;91.30;35.47;;;;;;;3.37;99.17;99815.56;4753440;29;20047;-86
2020/12/07 16:14:12;;;;;;;;;;;;;;;3.37;98.80;99825.38;4767996;29;20051;-85
2020/12/07 16:16:48;;;;;;;90.07;34.45;;;;;;;3.35;99.40;99830.81;4732520;29;19921;-86
2020/12/07 16:19:17;;;;;;;88.90;35.22;;;;;;;3.33;98.96;99833.56;4760723;29;20047;-86
2020/12/07 16:22:04;;;;;;;89.43;35.43;;;;;;;3.32;98.86;99836.34;4766635;30;20140;-88
2020/12/07 16:24:40;;;;;;;91.30;36.60;;;;;;;3.30;99.13;99839.13;4766281;29;20280;-85
2020/12/07 16:27:11;;;;;;;95.38;37.40;;;;;;;3.26;99.28;99834.16;4771122;29;20063;-86
2020/12/07 16:29:39;;;;;;;91.75;34.25;;;;;;;3.31;98.92;99839.97;4761705;30;20043;-85
2020/12/07 16:32:09;;;;;;;97.13;38.25;;;;;;;3.32;99.32;99837.19;4777955;29;20063;-85
2020/12/07 16:34:34;;;;;;;92.65;35.60;;;;;;;3.32;98.65;99841.66;4773862;29;20047;-85
2020/12/07 16:37:07;;;;;;;95.40;36.03;;;;;;;3.30;99.06;99848.94;4781378;29;20051;-85
2020/12/07 16:39:38;;;;;;;99.53;36.20;;;;;;;3.24;99.18;99842.25;4765633;29;20115;-87
2020/12/07 16:42:04;;;;;;;88.25;33.30;;;;;;;3.27;99.40;99849.16;4766667;29;20463;-85
2020/12/07 16:44:34;;;;;;;99.85;37.65;;;;;;;3.26;98.85;99847.44;4759164;29;20051;-86
2020/12/07 16:47:37;;;;;;;91.47;36.92;;;;;;;3.20;99.11;99848.75;4757948;30;20075;-85
2020/12/07 16:50:11;;;;;;;88.75;35.78;;;;;;;3.22;98.88;99845.97;4760652;29;20051;-86
2020/12/07 16:52:57;;;;;;;100.50;36.95;;;;;;;3.27;98.92;99852.66;4774286;29;20047;-86
2020/12/07 16:55:23;;;;;;;101.50;36.42;;;;;;;3.20;99.71;99847.91;4776167;29;20047;-85
2020/12/07 16:58:27;;;;;;;110.47;38.55;;;;;;;3.18;99.36;99855.13;4753680;29;20425;-85
2020/12/07 17:00:55;;;;;;;101.32;38.55;;;;;;;3.19;98.92;99856.84;4770169;29;20047;-86
2020/12/07 17:03:22;;;;;;;113.93;40.43;;;;;;;3.12;99.13;99859.97;4773241;29;20127;-87
2020/12/07 17:06:11;;;;;;;111.55;44.35;;;;;;;3.10;99.27;99858.38;4773621;29;20326;-85
2020/12/07 17:08:39;;;;;;;108.45;40.97;;;;;;;3.12;99.13;99864.41;4753458;29;20477;-86
2020/12/07 17:11:15;;;;;;;108.87;41.03;;;;;;;3.07;99.25;99864.75;4747109;29;20046;-85
2020/12/07 17:13:46;;;;;;;115.90;39.83;;;;;;;3.08;98.96;99881.56;4758148;29;20291;-86
2020/12/07 17:16:26;;;;;;;111.38;42.85;;;;;;;3.07;99.20;99879.88;4745196;29;20051;-86
2020/12/07 17:18:57;;;;;;;105.45;39.33;;;;;;;3.07;98.99;99878.06;4773548;29;20503;-86
2020/12/07 17:21:32;;;;;;;106.45;36.60;;;;;;;3.05;99.27;99884.44;4756873;29;20516;-84
2020/12/07 17:24:05;;;;;;;103.07;37.78;;;;;;;3.06;98.76;99884.34;4760389;30;20035;-85
2020/12/07 17:26:35;;;;;;;116.90;42.22;;;;;;;3.00;99.11;99883.94;4743551;29;20505;-85
2020/12/07 17:29:09;;;;;;;109.57;41.33;;;;;;;2.94;99.44;99882.56;4764464;29;20039;-86
2020/12/07 17:31:39;;;;;;;112.82;38.08;;;;;;;2.96;99.33;99891.28;4744778;30;20051;-85
2020/12/07 17:34:12;;;;;;;107.18;38.50;;;;;;;2.95;98.59;99890.44;4801884;29;20039;-86
2020/12/07 17:36:38;;;;;;;107.43;36.85;;;;;;;2.97;98.84;99895.63;4756991;29;20513;-85
2020/12/07 17:39:07;;;;;;;103.40;34.53;;;;;;;2.96;98.40;99893.94;4754293;29;20486;-85
2020/12/07 17:41:47;;;;;;;117.75;40.08;;;;;;;2.89;99.15;99893.53;4768271;30;20047;-84
2020/12/07 17:44:13;;;;;;;104.95;39.15;;;;;;;2.92;98.73;99900.44;4763639;29;20047;-85
2020/12/07 17:47:02;;;;;;;113.35;38.10;;;;;;;2.89;99.08;99904.16;4768406;29;20054;-84
2020/12/07 17:49:27;;;;;;;108.82;39.40;;;;;;;2.94;98.85;99911.81;4764431;30;20094;-85
2020/12/07 17:51:54;;;;;;;120.97;41.60;;;;;;;3.01;98.97;99913.06;4760116;30;20067;-84
2020/12/07 17:54:22;;;;;;;122.57;40.25;;;;;;;2.98;98.80;99913.28;4756559;29;20532;-85
2020/12/07 17:57:03;;;;;;;;;;;;;;;;;;;;;
2020/12/07 17:59:39;;;;;;;131.05;42.47;;;;;;;2.93;99.34;99923.38;4772332;29;20675;-84
2020/12/07 18:02:07;;;;;;;123.20;42.47;;;;;;;2.93;98.95;99920.72;4782229;29;20055;-85
2020/12/07 18:04:33;;;;;;;141.70;46.70;;;;;;;2.90;98.81;99918.28;4779568;29;20044;-85
2020/12/07 18:06:58;;;;;;;125.40;43.13;;;;;;;2.90;99.37;99921.81;4763093;29;20056;-85
2020/12/07 18:09:24;;;;;;;135.63;42.92;;;;;;;2.92;98.86;99930.53;4774903;29;20050;-85
2020/12/07 18:11:56;;;;;;;139.35;44.78;;;;;;;2.94;99.35;99935.72;4779074;29;20039;-86
2020/12/07 18:14:40;;;;;;;;;;;;;;;;;;;;;
2020/12/07 18:17:35;;;;;;;183.93;50.47;;;;;;;2.88;99.50;99939.66;4771720;29;20515;-86
2020/12/07 18:20:24;;;;;;;182.20;60.50;;;;;;;2.82;99.15;99944.59;4769676;29;20047;-87
2020/12/07 18:22:49;;;;;;;168.27;46.03;;;;;;;2.79;99.78;99946.47;4736044;29;20058;-87
2020/12/07 18:25:38;;;;;;;174.52;56.28;;;;;;;2.77;100.00;99944.91;4744562;29;20110;-88
2020/12/07 18:28:07;;;;;;;168.38;48.90;;;;;;;2.82;99.15;99944.59;4763884;29;20055;-87
2020/12/07 18:30:43;;;;;;;175.50;51.53;;;;;;;2.75;99.87;99955.66;4737063;29;20054;-87
2020/12/07 18:37:22;;;;;;;180.73;52.30;;;;;;;2.77;99.53;99968.81;4694974;30;20603;-86
2020/12/07 18:43:38;;;;;;;;;;;;;;;;;;;;;
2020/12/07 18:46:24;;;;;;;;;;;;;;;;;;;;;
2020/12/07 18:49:08;;;;;;;;;;;;;;;;;;;;;
2020/12/07 18:52:08;;;;;;;139.30;46.75;;;;;;;2.80;97.81;99993.38;4709884;30;21904;-86
2020/12/07 18:55:04;;;;;;;141.30;47.67;;;;;;;2.85;98.05;99997.50;4699623;30;20044;-86
2020/12/07 18:57:47;;;;;;;156.05;49.17;;;;;;;2.78;98.02;99992.63;4750766;29;20489;-86
2020/12/07 19:00:31;;;;;;;151.10;48.30;;;;;;;2.79;98.32;99999.63;4748403;30;20047;-86
2020/12/07 19:06:15;;;;;;;152.25;48.45;;;;;;;2.71;98.41;100004.66;4752226;29;20107;-86
2020/12/07 19:09:13;;;;;;;150.32;47.60;;;;;;;2.69;98.30;100003.03;4726156;30;20047;-87
2020/12/07 19:11:39;;;;;;;131.60;43.85;;;;;;;2.61;97.83;100004.44;4743390;29;20057;-87
2020/12/07 19:14:08;;;;;;;133.85;46.30;;;;;;;2.59;97.88;100008.13;4773395;30;20031;-86
2020/12/07 19:16:46;;;;;;;122.13;42.55;;;;;;;2.56;98.12;100018.97;4760252;30;20059;-87
2020/12/07 19:19:37;;;;;;;125.20;43.08;;;;;;;2.59;98.11;100018.75;4748826;29;20039;-87
2020/12/07 19:22:06;;;;;;;112.97;41.13;;;;;;;2.49;97.72;100013.25;4758784;29;20083;-86
2020/12/07 19:24:35;;;;;;;112.85;42.08;;;;;;;2.47;97.44;100014.31;4758616;29;20078;-86
2020/12/07 19:27:35;;;;;;;110.18;39.38;;;;;;;2.46;97.60;100013.47;4767984;29;20054;-86
2020/12/07 19:30:18;;;;;;;117.55;40.92;;;;;;;2.43;97.52;100019.81;4764584;30;20047;-86
2020/12/07 19:32:46;;;;;;;118.55;40.40;;;;;;;2.43;97.30;100027.78;4699245;30;20056;-86
2020/12/07 19:35:26;;;;;;;113.15;40.70;;;;;;;2.39;97.55;100033.44;4730456;30;20140;-86
2020/12/07 19:41:34;;;;;;;102.28;39.20;;;;;;;2.40;97.39;100028.00;4757769;29;20056;-86
2020/12/07 19:51:26;;;;;;;106.07;38.53;;;;;;;2.36;97.18;100052.22;4719329;30;20185;-87
2020/12/07 19:54:10;;;;;;;114.75;40.15;;;;;;;2.33;98.20;100055.94;4714561;30;20055;-87
2020/12/07 19:56:45;;;;;;;110.28;39.92;;;;;;;2.34;97.75;100060.28;4725697;29;20122;-87
2020/12/07 19:59:17;;;;;;;111.68;39.55;;;;;;;2.29;97.62;100059.75;4754267;29;20047;-87
2020/12/07 20:02:00;;;;;;;115.03;40.50;;;;;;;2.29;97.77;100065.03;4747105;30;20059;-87
2020/12/07 20:04:59;;;;;;;134.75;46.28;;;;;;;2.30;98.46;100064.09;4759984;30;20058;-88
2020/12/07 20:07:33;;;;;;;130.25;43.20;;;;;;;2.35;98.10;100067.28;4760576;29;20051;-88
2020/12/07 20:10:11;;;;;;;131.35;45.00;;;;;;;2.35;97.80;100064.63;4766902;29;20054;-87
2020/12/07 20:13:01;;;;;;;123.43;42.33;;;;;;;2.35;98.15;100063.78;4748855;29;20050;-88
2020/12/07 20:15:42;;;;;;;123.70;45.45;;;;;;;2.32;98.28;100069.31;4772329;29;20144;-87
2020/12/07 20:18:30;;;;;;;134.57;45.00;;;;;;;2.33;98.40;100069.22;4773403;29;20071;-87
2020/12/07 20:21:16;;;;;;;120.30;42.65;;;;;;;2.34;98.43;100072.69;4764981;29;20046;-88
2020/12/07 20:23:45;;;;;;;134.60;45.15;;;;;;;2.33;97.81;100074.53;4779919;29;20047;-88
2020/12/07 20:26:35;;;;;;;127.57;42.70;;;;;;;2.35;97.82;100067.28;4754650;29;20493;-88
2020/12/07 20:29:29;;;;;;;130.27;42.67;;;;;;;2.36;97.98;100076.97;4764173;30;20049;-88
2020/12/07 20:31:58;;;;;;;114.15;39.78;;;;;;;2.37;98.57;100076.03;4732106;29;20126;-88
2020/12/07 20:34:33;;;;;;;124.53;42.70;;;;;;;2.34;97.82;100076.22;4750645;30;20036;-88
2020/12/07 20:37:07;;;;;;;110.32;39.88;;;;;;;2.35;98.06;100075.25;4764122;30;20643;-88
2020/12/07 20:39:45;;;;;;;119.15;40.33;;;;;;;2.31;98.44;100076.41;4740573;30;20393;-87
2020/12/07 20:42:10;;;;;;;122.57;40.08;;;;;;;2.26;98.54;100075.88;4765989;30;20052;-87